sensor_id;sensor_type;location;lat;lon;timestamp;pressure;altitude;pressure_sealevel;temperature;humidity
61571;BME280;47463;49.884;10.010;2022-07-04T00:00:01;101954;;;19.5;59
61571;BME280;47463;49.884;10.010;2022-07-04T00:05:01;101965;;;19.4;60
61571;BME280;47463;49.884;10.010;2022-07-04T00:10:01;101973;;;19.2;61
61571;BME280;47463;49.884;10.010;2022-07-04T00:15:01;101981;;;19.1;61
61571;BME280;47463;49.884;10.010;2022-07-04T00:20:01;101984;;;19;61
61571;BME280;47463;49.884;10.010;2022-07-04T00:25:01;101988;;;18.9;62
61571;BME280;47463;49.884;10.010;2022-07-04T00:30:01;102002;;;18.9;62
61571;BME280;47463;49.884;10.010;2022-07-04T00:35:01;102013;;;18.7;63
61571;BME280;47463;49.884;10.010;2022-07-04T00:40:01;102015;;;18.6;63
61571;BME280;47463;49.884;10.010;2022-07-04T00:45:01;102020;;;18.5;64
61571;BME280;47463;49.884;10.010;2022-07-04T00:50:01;102019;;;18.4;64
61571;BME280;47463;49.884;10.010;2022-07-04T00:55:01;102024;;;18.3;65
61571;BME280;47463;49.884;10.010;2022-07-04T01:00:01;102017;;;18.1;65
61571;BME280;47463;49.884;10.010;2022-07-04T01:05:01;102010;;;17.8;66
61571;BME280;47463;49.884;10.010;2022-07-04T01:10:01;102015;;;17.7;67
61571;BME280;47463;49.884;10.010;2022-07-04T01:15:01;102014;;;17.6;67
61571;BME280;47463;49.884;10.010;2022-07-04T01:20:01;102017;;;17.6;67
61571;BME280;47463;49.884;10.010;2022-07-04T01:25:01;102021;;;17.6;68
61571;BME280;47463;49.884;10.010;2022-07-04T01:30:01;102022;;;17.5;68
61571;BME280;47463;49.884;10.010;2022-07-04T01:35:01;102035;;;17.4;68
61571;BME280;47463;49.884;10.010;2022-07-04T01:40:01;102036;;;17.4;68
61571;BME280;47463;49.884;10.010;2022-07-04T01:45:01;102037;;;17.4;68
61571;BME280;47463;49.884;10.010;2022-07-04T01:50:01;102036;;;17.3;69
61571;BME280;47463;49.884;10.010;2022-07-04T01:55:01;102032;;;17.1;69
61571;BME280;47463;49.884;10.010;2022-07-04T02:00:01;102032;;;17.1;70
61571;BME280;47463;49.884;10.010;2022-07-04T02:05:01;102037;;;17;70
61571;BME280;47463;49.884;10.010;2022-07-04T02:10:01;102053;;;17;70
61571;BME280;47463;49.884;10.010;2022-07-04T02:15:01;102060;;;16.9;70
61571;BME280;47463;49.884;10.010;2022-07-04T02:20:01;102056;;;16.9;71
61571;BME280;47463;49.884;10.010;2022-07-04T02:25:01;102053;;;16.8;71
61571;BME280;47463;49.884;10.010;2022-07-04T02:30:01;102051;;;16.6;71
61571;BME280;47463;49.884;10.010;2022-07-04T02:35:01;102045;;;16.4;72
61571;BME280;47463;49.884;10.010;2022-07-04T02:40:01;102053;;;16.6;72
61571;BME280;47463;49.884;10.010;2022-07-04T02:45:01;102060;;;16.6;71
61571;BME280;47463;49.884;10.010;2022-07-04T02:50:01;102058;;;16.7;71
61571;BME280;47463;49.884;10.010;2022-07-04T02:55:01;102072;;;16.5;72
61571;BME280;47463;49.884;10.010;2022-07-04T03:00:01;102077;;;16.5;72
61571;BME280;47463;49.884;10.010;2022-07-04T03:05:01;102081;;;16.4;72
61571;BME280;47463;49.884;10.010;2022-07-04T03:10:01;102091;;;16.3;73
61571;BME280;47463;49.884;10.010;2022-07-04T03:15:01;102096;;;16.3;73
61571;BME280;47463;49.884;10.010;2022-07-04T03:20:01;102104;;;16.3;73
61571;BME280;47463;49.884;10.010;2022-07-04T03:25:01;102111;;;16.2;73
61571;BME280;47463;49.884;10.010;2022-07-04T03:30:01;102116;;;16.1;73
61571;BME280;47463;49.884;10.010;2022-07-04T03:35:01;102114;;;15.9;74
61571;BME280;47463;49.884;10.010;2022-07-04T03:40:01;102120;;;16;74
61571;BME280;47463;49.884;10.010;2022-07-04T03:45:01;102124;;;16;74
61571;BME280;47463;49.884;10.010;2022-07-04T03:50:01;102130;;;16;74
61571;BME280;47463;49.884;10.010;2022-07-04T03:55:01;102131;;;16.1;74
61571;BME280;47463;49.884;10.010;2022-07-04T04:00:01;102136;;;16.2;73
61571;BME280;47463;49.884;10.010;2022-07-04T04:05:01;102144;;;16.4;73
61571;BME280;47463;49.884;10.010;2022-07-04T04:10:01;102146;;;16.4;73
61571;BME280;47463;49.884;10.010;2022-07-04T04:15:01;102153;;;16.5;73
61571;BME280;47463;49.884;10.010;2022-07-04T04:20:01;102154;;;16.6;73
61571;BME280;47463;49.884;10.010;2022-07-04T04:25:01;102152;;;16.7;72
61571;BME280;47463;49.884;10.010;2022-07-04T04:30:01;102163;;;16.8;72
61571;BME280;47463;49.884;10.010;2022-07-04T04:35:01;102162;;;17;72
61571;BME280;47463;49.884;10.010;2022-07-04T04:40:01;102165;;;17.2;71
61571;BME280;47463;49.884;10.010;2022-07-04T04:45:01;102176;;;17.3;71
61571;BME280;47463;49.884;10.010;2022-07-04T04:50:01;102183;;;17.4;71
61571;BME280;47463;49.884;10.010;2022-07-04T04:55:01;102180;;;17.5;71
61571;BME280;47463;49.884;10.010;2022-07-04T05:00:01;102182;;;17.6;70
61571;BME280;47463;49.884;10.010;2022-07-04T05:05:01;102188;;;17.7;70
61571;BME280;47463;49.884;10.010;2022-07-04T05:10:01;102192;;;17.7;70
61571;BME280;47463;49.884;10.010;2022-07-04T05:15:01;102196;;;17.9;70
61571;BME280;47463;49.884;10.010;2022-07-04T05:20:01;102198;;;18;69
61571;BME280;47463;49.884;10.010;2022-07-04T05:25:01;102196;;;18.2;69
61571;BME280;47463;49.884;10.010;2022-07-04T05:30:01;102202;;;18.3;69
61571;BME280;47463;49.884;10.010;2022-07-04T05:35:01;102205;;;18.6;68
61571;BME280;47463;49.884;10.010;2022-07-04T05:40:01;102210;;;19;67
61571;BME280;47463;49.884;10.010;2022-07-04T05:45:01;102199;;;19.3;66
61571;BME280;47463;49.884;10.010;2022-07-04T05:50:01;102216;;;19.7;65
61571;BME280;47463;49.884;10.010;2022-07-04T05:55:01;102219;;;19.9;64
61571;BME280;47463;49.884;10.010;2022-07-04T06:00:01;102222;;;20.6;63
61571;BME280;47463;49.884;10.010;2022-07-04T06:05:01;102211;;;20.9;61
61571;BME280;47463;49.884;10.010;2022-07-04T06:10:01;102218;;;20.4;61
61571;BME280;47463;49.884;10.010;2022-07-04T06:15:01;102226;;;20.6;62
61571;BME280;47463;49.884;10.010;2022-07-04T06:20:01;102229;;;20.8;61
61571;BME280;47463;49.884;10.010;2022-07-04T06:25:01;102235;;;20.9;61
61571;BME280;47463;49.884;10.010;2022-07-04T06:30:01;102229;;;20.8;61
61571;BME280;47463;49.884;10.010;2022-07-04T06:35:01;102238;;;21.2;60
61571;BME280;47463;49.884;10.010;2022-07-04T06:40:01;102241;;;22;58
61571;BME280;47463;49.884;10.010;2022-07-04T06:45:01;102240;;;21.6;59
61571;BME280;47463;49.884;10.010;2022-07-04T06:50:01;102240;;;21;60
61571;BME280;47463;49.884;10.010;2022-07-04T06:55:01;102251;;;22;58
61571;BME280;47463;49.884;10.010;2022-07-04T07:00:01;102239;;;22.4;57
61571;BME280;47463;49.884;10.010;2022-07-04T07:05:01;102245;;;22.1;57
61571;BME280;47463;49.884;10.010;2022-07-04T07:10:01;102246;;;22.1;58
61571;BME280;47463;49.884;10.010;2022-07-04T07:15:01;102238;;;21.8;58
61571;BME280;47463;49.884;10.010;2022-07-04T07:20:01;102235;;;22.3;57
61571;BME280;47463;49.884;10.010;2022-07-04T07:25:01;102231;;;22.4;57
61571;BME280;47463;49.884;10.010;2022-07-04T07:30:01;102233;;;22.1;57
61571;BME280;47463;49.884;10.010;2022-07-04T07:35:01;102220;;;22;57
61571;BME280;47463;49.884;10.010;2022-07-04T07:40:01;102234;;;22.1;57
61571;BME280;47463;49.884;10.010;2022-07-04T07:45:01;102234;;;22.3;57
61571;BME280;47463;49.884;10.010;2022-07-04T07:50:01;102229;;;22.1;58
61571;BME280;47463;49.884;10.010;2022-07-04T07:55:01;102226;;;21.8;58
61571;BME280;47463;49.884;10.010;2022-07-04T08:00:01;102236;;;22.3;58
61571;BME280;47463;49.884;10.010;2022-07-04T08:05:01;102220;;;22.3;57
61571;BME280;47463;49.884;10.010;2022-07-04T08:10:01;102208;;;21.9;57
61571;BME280;47463;49.884;10.010;2022-07-04T08:15:01;102205;;;21.7;58
61571;BME280;47463;49.884;10.010;2022-07-04T08:20:01;102202;;;22.2;56
61571;BME280;47463;49.884;10.010;2022-07-04T08:25:01;102194;;;22.3;56
61571;BME280;47463;49.884;10.010;2022-07-04T08:30:01;102179;;;22.4;55
61571;BME280;47463;49.884;10.010;2022-07-04T08:35:01;102184;;;22.4;55
61571;BME280;47463;49.884;10.010;2022-07-04T08:40:01;102180;;;23;54
61571;BME280;47463;49.884;10.010;2022-07-04T08:45:01;102174;;;23.1;54
61571;BME280;47463;49.884;10.010;2022-07-04T08:50:05;102184;;;22.9;54
61571;BME280;47463;49.884;10.010;2022-07-04T08:55:01;102175;;;23.5;53
61571;BME280;47463;49.884;10.010;2022-07-04T09:00:01;102160;;;23.4;53
61571;BME280;47463;49.884;10.010;2022-07-04T09:05:01;102155;;;23.3;53
61571;BME280;47463;49.884;10.010;2022-07-04T09:10:01;102153;;;23.7;51
61571;BME280;47463;49.884;10.010;2022-07-04T09:15:01;102148;;;24;50
61571;BME280;47463;49.884;10.010;2022-07-04T09:20:16;102146;;;24;50
61571;BME280;47463;49.884;10.010;2022-07-04T09:25:01;102143;;;24.6;48
61571;BME280;47463;49.884;10.010;2022-07-04T09:30:01;102138;;;24.1;48
61571;BME280;47463;49.884;10.010;2022-07-04T09:35:01;102127;;;24.6;47
61571;BME280;47463;49.884;10.010;2022-07-04T09:40:01;102136;;;25.1;46
61571;BME280;47463;49.884;10.010;2022-07-04T09:45:03;102121;;;24.7;45
61571;BME280;47463;49.884;10.010;2022-07-04T09:50:01;102153;;;24.7;45
61571;BME280;47463;49.884;10.010;2022-07-04T09:55:01;102122;;;25;46
61571;BME280;47463;49.884;10.010;2022-07-04T10:00:15;102136;;;24.5;44
61571;BME280;47463;49.884;10.010;2022-07-04T10:05:01;102149;;;24.8;45
61571;BME280;47463;49.884;10.010;2022-07-04T10:10:01;102124;;;24.8;46
61571;BME280;47463;49.884;10.010;2022-07-04T10:15:01;102120;;;23.9;45
61571;BME280;47463;49.884;10.010;2022-07-04T10:20:01;102120;;;24.3;44
61571;BME280;47463;49.884;10.010;2022-07-04T10:25:01;102108;;;24.5;44
61571;BME280;47463;49.884;10.010;2022-07-04T10:30:03;102134;;;24.2;44
61571;BME280;47463;49.884;10.010;2022-07-04T10:35:01;102135;;;24.5;45
61571;BME280;47463;49.884;10.010;2022-07-04T10:40:01;102132;;;24.4;45
61571;BME280;47463;49.884;10.010;2022-07-04T10:45:01;102151;;;24.4;45
61571;BME280;47463;49.884;10.010;2022-07-04T10:50:01;102119;;;24.5;45
61571;BME280;47463;49.884;10.010;2022-07-04T10:55:04;102103;;;24.9;43
61571;BME280;47463;49.884;10.010;2022-07-04T11:00:03;102119;;;24.7;42
61571;BME280;47463;49.884;10.010;2022-07-04T11:05:01;102126;;;24.7;44
61571;BME280;47463;49.884;10.010;2022-07-04T11:10:36;102123;;;25.2;43
61571;BME280;47463;49.884;10.010;2022-07-04T11:15:01;102094;;;25;42
61571;BME280;47463;49.884;10.010;2022-07-04T11:20:02;102118;;;24.8;41
61571;BME280;47463;49.884;10.010;2022-07-04T11:25:01;102115;;;24.7;42
61571;BME280;47463;49.884;10.010;2022-07-04T11:30:01;102094;;;24.6;41
61571;BME280;47463;49.884;10.010;2022-07-04T11:35:01;102094;;;25.2;40
61571;BME280;47463;49.884;10.010;2022-07-04T11:40:01;102113;;;25.1;42
61571;BME280;47463;49.884;10.010;2022-07-04T11:45:01;102115;;;25;42
61571;BME280;47463;49.884;10.010;2022-07-04T11:50:01;102083;;;25.3;39
61571;BME280;47463;49.884;10.010;2022-07-04T11:55:01;102104;;;25.5;40
61571;BME280;47463;49.884;10.010;2022-07-04T12:00:02;102101;;;25.2;40
61571;BME280;47463;49.884;10.010;2022-07-04T12:05:01;102100;;;25.2;41
61571;BME280;47463;49.884;10.010;2022-07-04T12:10:08;102068;;;25.8;39
61571;BME280;47463;49.884;10.010;2022-07-04T12:15:02;102087;;;25.7;38
61571;BME280;47463;49.884;10.010;2022-07-04T12:20:02;102083;;;25.7;38
61571;BME280;47463;49.884;10.010;2022-07-04T12:25:01;102078;;;25.9;37
61571;BME280;47463;49.884;10.010;2022-07-04T12:30:02;102069;;;26;38
61571;BME280;47463;49.884;10.010;2022-07-04T12:35:01;102057;;;25.6;36
61571;BME280;47463;49.884;10.010;2022-07-04T12:40:06;102025;;;25.8;35
61571;BME280;47463;49.884;10.010;2022-07-04T12:45:04;102049;;;25.7;37
61571;BME280;47463;49.884;10.010;2022-07-04T12:50:01;102030;;;25.9;36
61571;BME280;47463;49.884;10.010;2022-07-04T12:55:01;102015;;;26.1;37
61571;BME280;47463;49.884;10.010;2022-07-04T13:00:01;101998;;;26.5;35
61571;BME280;47463;49.884;10.010;2022-07-04T13:05:01;101995;;;26.4;35
61571;BME280;47463;49.884;10.010;2022-07-04T13:10:01;101988;;;26.4;35
61571;BME280;47463;49.884;10.010;2022-07-04T13:15:01;101963;;;25.9;34
61571;BME280;47463;49.884;10.010;2022-07-04T13:20:01;101982;;;26.2;34
61571;BME280;47463;49.884;10.010;2022-07-04T13:25:01;101982;;;26.5;33
61571;BME280;47463;49.884;10.010;2022-07-04T13:30:01;101977;;;26.6;32
61571;BME280;47463;49.884;10.010;2022-07-04T13:35:01;102001;;;26.4;34
61571;BME280;47463;49.884;10.010;2022-07-04T13:40:01;101976;;;26.4;34
61571;BME280;47463;49.884;10.010;2022-07-04T13:45:01;101986;;;26.5;34
61571;BME280;47463;49.884;10.010;2022-07-04T13:50:01;102013;;;26.5;35
61571;BME280;47463;49.884;10.010;2022-07-04T13:55:01;101979;;;26.8;35
61571;BME280;47463;49.884;10.010;2022-07-04T14:00:01;101966;;;26.4;35
61571;BME280;47463;49.884;10.010;2022-07-04T14:05:01;101968;;;26.3;35
61571;BME280;47463;49.884;10.010;2022-07-04T14:10:01;101971;;;26.7;35
61571;BME280;47463;49.884;10.010;2022-07-04T14:15:01;101971;;;26.6;34
61571;BME280;47463;49.884;10.010;2022-07-04T14:20:01;101950;;;26.5;34
61571;BME280;47463;49.884;10.010;2022-07-04T14:25:01;101947;;;26.6;34
61571;BME280;47463;49.884;10.010;2022-07-04T14:30:01;101933;;;26.9;34
61571;BME280;47463;49.884;10.010;2022-07-04T14:35:01;101936;;;26.9;34
61571;BME280;47463;49.884;10.010;2022-07-04T14:40:01;101939;;;26.9;34
61571;BME280;47463;49.884;10.010;2022-07-04T14:45:01;101931;;;26.7;34
61571;BME280;47463;49.884;10.010;2022-07-04T14:50:01;101925;;;26.3;35
61571;BME280;47463;49.884;10.010;2022-07-04T14:55:01;101908;;;26.3;35
61571;BME280;47463;49.884;10.010;2022-07-04T15:00:01;101908;;;26.6;33
61571;BME280;47463;49.884;10.010;2022-07-04T15:05:01;101884;;;26.3;33
61571;BME280;47463;49.884;10.010;2022-07-04T15:10:01;101895;;;26.6;33
61571;BME280;47463;49.884;10.010;2022-07-04T15:15:01;101874;;;26.5;34
61571;BME280;47463;49.884;10.010;2022-07-04T15:20:01;101871;;;26.6;34
61571;BME280;47463;49.884;10.010;2022-07-04T15:25:01;101872;;;26.4;34
61571;BME280;47463;49.884;10.010;2022-07-04T15:30:01;101867;;;26.4;33
61571;BME280;47463;49.884;10.010;2022-07-04T15:35:01;101860;;;26.5;34
61571;BME280;47463;49.884;10.010;2022-07-04T15:40:01;101843;;;26.4;33
61571;BME280;47463;49.884;10.010;2022-07-04T15:45:01;101848;;;26.2;33
61571;BME280;47463;49.884;10.010;2022-07-04T15:50:01;101861;;;25.9;34
61571;BME280;47463;49.884;10.010;2022-07-04T15:55:01;101862;;;26.2;33
61571;BME280;47463;49.884;10.010;2022-07-04T16:00:01;101874;;;26.3;33
61571;BME280;47463;49.884;10.010;2022-07-04T16:05:01;101886;;;26.4;34
61571;BME280;47463;49.884;10.010;2022-07-04T16:10:01;101901;;;26.7;33
61571;BME280;47463;49.884;10.010;2022-07-04T16:15:01;101880;;;27;33
61571;BME280;47463;49.884;10.010;2022-07-04T16:20:01;101876;;;27.1;33
61571;BME280;47463;49.884;10.010;2022-07-04T16:25:01;101849;;;27.1;32
61571;BME280;47463;49.884;10.010;2022-07-04T16:30:01;101859;;;26.8;33
61571;BME280;47463;49.884;10.010;2022-07-04T16:35:01;101871;;;26.8;33
61571;BME280;47463;49.884;10.010;2022-07-04T16:40:01;101853;;;26.4;34
61571;BME280;47463;49.884;10.010;2022-07-04T16:45:01;101872;;;26;35
61571;BME280;47463;49.884;10.010;2022-07-04T16:50:01;101852;;;26.1;35
61571;BME280;47463;49.884;10.010;2022-07-04T16:55:01;101871;;;26.3;35
61571;BME280;47463;49.884;10.010;2022-07-04T17:00:01;101852;;;26;35
61571;BME280;47463;49.884;10.010;2022-07-04T17:05:01;101850;;;25.9;35
61571;BME280;47463;49.884;10.010;2022-07-04T17:10:01;101848;;;26.4;35
61571;BME280;47463;49.884;10.010;2022-07-04T17:15:01;101866;;;26.3;34
61571;BME280;47463;49.884;10.010;2022-07-04T17:20:01;101860;;;26.3;35
61571;BME280;47463;49.884;10.010;2022-07-04T17:25:01;101856;;;26.5;33
61571;BME280;47463;49.884;10.010;2022-07-04T17:30:01;101856;;;26.5;34
61571;BME280;47463;49.884;10.010;2022-07-04T17:35:01;101866;;;26.4;34
61571;BME280;47463;49.884;10.010;2022-07-04T17:40:01;101879;;;26.3;34
61571;BME280;47463;49.884;10.010;2022-07-04T17:45:01;101879;;;26.2;34
61571;BME280;47463;49.884;10.010;2022-07-04T17:50:01;101887;;;26.1;35
61571;BME280;47463;49.884;10.010;2022-07-04T17:55:01;101894;;;26.3;35
61571;BME280;47463;49.884;10.010;2022-07-04T18:00:01;101895;;;25.8;36
61571;BME280;47463;49.884;10.010;2022-07-04T18:05:01;101914;;;25.5;37
61571;BME280;47463;49.884;10.010;2022-07-04T18:10:01;101924;;;25.4;38
61571;BME280;47463;49.884;10.010;2022-07-04T18:15:01;101917;;;25.2;38
61571;BME280;47463;49.884;10.010;2022-07-04T18:20:01;101924;;;25.2;38
61571;BME280;47463;49.884;10.010;2022-07-04T18:25:01;101936;;;25.2;39
61571;BME280;47463;49.884;10.010;2022-07-04T18:30:01;101936;;;25.1;40
61571;BME280;47463;49.884;10.010;2022-07-04T18:35:01;101952;;;25;43
61571;BME280;47463;49.884;10.010;2022-07-04T18:40:01;101963;;;24.3;44
61571;BME280;47463;49.884;10.010;2022-07-04T18:45:01;101950;;;23.9;45
61571;BME280;47463;49.884;10.010;2022-07-04T18:50:01;101940;;;23.8;43
61571;BME280;47463;49.884;10.010;2022-07-04T18:55:01;101949;;;23.6;43
61571;BME280;47463;49.884;10.010;2022-07-04T19:00:01;101940;;;23.3;44
61571;BME280;47463;49.884;10.010;2022-07-04T19:05:01;101944;;;22.9;45
61571;BME280;47463;49.884;10.010;2022-07-04T19:10:01;101934;;;22.5;44
61571;BME280;47463;49.884;10.010;2022-07-04T19:15:01;101932;;;22;46
61571;BME280;47463;49.884;10.010;2022-07-04T19:20:01;101934;;;21.6;47
61571;BME280;47463;49.884;10.010;2022-07-04T19:25:01;101945;;;21.2;47
61571;BME280;47463;49.884;10.010;2022-07-04T19:30:01;101951;;;21;47
61571;BME280;47463;49.884;10.010;2022-07-04T19:35:01;101952;;;20.9;47
61571;BME280;47463;49.884;10.010;2022-07-04T19:40:01;101963;;;20.8;46
61571;BME280;47463;49.884;10.010;2022-07-04T19:45:01;101972;;;20.6;47
61571;BME280;47463;49.884;10.010;2022-07-04T19:50:01;101983;;;20.3;48
61571;BME280;47463;49.884;10.010;2022-07-04T19:55:02;101977;;;20.1;48
61571;BME280;47463;49.884;10.010;2022-07-04T20:00:02;101986;;;20.1;47
61571;BME280;47463;49.884;10.010;2022-07-04T20:05:01;101982;;;20;47
61571;BME280;47463;49.884;10.010;2022-07-04T20:10:01;101994;;;19.7;48
61571;BME280;47463;49.884;10.010;2022-07-04T20:15:01;101993;;;19.4;49
61571;BME280;47463;49.884;10.010;2022-07-04T20:20:01;101995;;;19.4;49
61571;BME280;47463;49.884;10.010;2022-07-04T20:25:01;101995;;;19.4;49
61571;BME280;47463;49.884;10.010;2022-07-04T20:30:01;102001;;;19.1;50
61571;BME280;47463;49.884;10.010;2022-07-04T20:35:01;102007;;;19.1;50
61571;BME280;47463;49.884;10.010;2022-07-04T20:40:01;102009;;;19.1;50
61571;BME280;47463;49.884;10.010;2022-07-04T20:45:01;102006;;;19.1;50
61571;BME280;47463;49.884;10.010;2022-07-04T20:50:01;102015;;;19.1;50
61571;BME280;47463;49.884;10.010;2022-07-04T20:55:01;102022;;;19.1;49
61571;BME280;47463;49.884;10.010;2022-07-04T21:00:01;102030;;;19.1;49
61571;BME280;47463;49.884;10.010;2022-07-04T21:05:01;102039;;;19.1;49
61571;BME280;47463;49.884;10.010;2022-07-04T21:10:01;102044;;;19.1;49
61571;BME280;47463;49.884;10.010;2022-07-04T21:15:01;102049;;;19;50
61571;BME280;47463;49.884;10.010;2022-07-04T21:20:01;102057;;;19;50
61571;BME280;47463;49.884;10.010;2022-07-04T21:25:01;102056;;;18.8;51
61571;BME280;47463;49.884;10.010;2022-07-04T21:30:01;102058;;;18.9;50
61571;BME280;47463;49.884;10.010;2022-07-04T21:35:01;102061;;;19;50
61571;BME280;47463;49.884;10.010;2022-07-04T21:40:01;102063;;;19.3;49
61571;BME280;47463;49.884;10.010;2022-07-04T21:45:01;102065;;;19.2;50
61571;BME280;47463;49.884;10.010;2022-07-04T21:50:01;102063;;;19.2;50
61571;BME280;47463;49.884;10.010;2022-07-04T21:55:01;102063;;;19;51
61571;BME280;47463;49.884;10.010;2022-07-04T22:00:01;102072;;;18.9;51
61571;BME280;47463;49.884;10.010;2022-07-04T22:05:01;102076;;;18.7;51
61571;BME280;47463;49.884;10.010;2022-07-04T22:10:01;102085;;;18.6;52
61571;BME280;47463;49.884;10.010;2022-07-04T22:15:01;102077;;;18.7;51
61571;BME280;47463;49.884;10.010;2022-07-04T22:20:01;102086;;;19;51
61571;BME280;47463;49.884;10.010;2022-07-04T22:25:01;102108;;;18.9;51
61571;BME280;47463;49.884;10.010;2022-07-04T22:30:01;102106;;;18.8;51
61571;BME280;47463;49.884;10.010;2022-07-04T22:35:01;102104;;;18.2;53
61571;BME280;47463;49.884;10.010;2022-07-04T22:40:01;102102;;;18.2;53
61571;BME280;47463;49.884;10.010;2022-07-04T22:45:01;102110;;;18.3;53
61571;BME280;47463;49.884;10.010;2022-07-04T22:50:01;102113;;;18;54
61571;BME280;47463;49.884;10.010;2022-07-04T22:55:01;102116;;;18.1;54
61571;BME280;47463;49.884;10.010;2022-07-04T23:00:02;102118;;;18.4;53
61571;BME280;47463;49.884;10.010;2022-07-04T23:05:01;102116;;;18.5;52
61571;BME280;47463;49.884;10.010;2022-07-04T23:10:01;102116;;;18.5;52
61571;BME280;47463;49.884;10.010;2022-07-04T23:15:01;102116;;;18.6;52
61571;BME280;47463;49.884;10.010;2022-07-04T23:20:01;102121;;;18.5;52
61571;BME280;47463;49.884;10.010;2022-07-04T23:25:01;102124;;;18.4;52
61571;BME280;47463;49.884;10.010;2022-07-04T23:30:01;102125;;;18.2;52
61571;BME280;47463;49.884;10.010;2022-07-04T23:35:01;102128;;;18.2;52
61571;BME280;47463;49.884;10.010;2022-07-04T23:40:01;102129;;;18;53
61571;BME280;47463;49.884;10.010;2022-07-04T23:45:01;102128;;;18;53
61571;BME280;47463;49.884;10.010;2022-07-04T23:50:01;102129;;;17.9;53
61571;BME280;47463;49.884;10.010;2022-07-04T23:55:01;102125;;;17.8;53
